Time;durP1;ratioP1;P1;durP2;ratioP2;P2;SDS_P1;SDS_P2;PMS_P1;PMS_P2;Temp;Humidity;BMP_temperature;BMP_pressure;BME280_temperature;BME280_humidity;BME280_pressure;Samples;Min_cycle;Max_cycle;Signal;HPM_P1;HPM_P2
2023/01/05 00:00:01;;;;;;;6.05;2.20;;;16.50;58.40;;;;;;5060973;28;20033;-72
2023/01/05 00:02:28;;;;;;;3.60;1.80;;;16.50;58.40;;;;;;5064294;28;20190;-72
2023/01/05 00:04:54;;;;;;;5.90;2.00;;;16.50;58.40;;;;;;5064306;28;20066;-71
2023/01/05 00:07:19;;;;;;;3.58;1.75;;;16.40;58.40;;;;;;5064247;28;20025;-71
2023/01/05 00:09:45;;;;;;;3.38;1.73;;;16.40;58.60;;;;;;5064187;28;20028;-72
2023/01/05 00:23:08;;;;;;;3.78;1.90;;;16.30;58.60;;;;;;5064011;28;20415;-74
2023/01/05 00:25:39;;;;;;;3.45;2.22;;;16.30;58.60;;;;;;5063745;28;20090;-71
2023/01/05 00:28:05;;;;;;;3.15;2.00;;;16.20;58.60;;;;;;5063971;28;20024;-72
2023/01/05 00:30:37;;;;;;;5.65;1.88;;;16.20;58.70;;;;;;5064036;28;20093;-72
2023/01/05 00:33:02;;;;;;;6.72;2.17;;;16.20;58.60;;;;;;5063895;28;20021;-72
2023/01/05 00:35:29;;;;;;;2.67;1.85;;;16.20;58.70;;;;;;5063803;28;20243;-73
2023/01/05 00:37:55;;;;;;;4.22;2.33;;;16.20;58.70;;;;;;5063809;28;20033;-73
2023/01/05 00:40:21;;;;;;;4.78;2.10;;;16.20;58.80;;;;;;5062508;28;20096;-74
2023/01/05 00:42:47;;;;;;;3.58;2.05;;;16.20;58.80;;;;;;5063775;28;20036;-73
2023/01/05 00:45:15;;;;;;;3.47;1.63;;;16.20;58.90;;;;;;5063645;28;20357;-73
2023/01/05 00:47:42;;;;;;;2.38;2.03;;;16.30;59.10;;;;;;5063565;28;20085;-73
2023/01/05 00:50:11;;;;;;;3.60;1.88;;;16.30;59.10;;;;;;5063653;28;20059;-73
2023/01/05 00:52:37;;;;;;;4.18;1.63;;;16.30;59.10;;;;;;5063452;28;20036;-73
2023/01/05 00:55:03;;;;;;;3.38;1.88;;;16.40;59.10;;;;;;5063382;28;20021;-73
2023/01/05 00:57:29;;;;;;;3.38;2.10;;;16.50;59.00;;;;;;5078762;28;20047;-72
2023/01/05 00:59:55;;;;;;;4.00;1.83;;;16.50;58.90;;;;;;5063313;28;20245;-73
2023/01/05 01:02:21;;;;;;;2.55;1.60;;;16.50;58.70;;;;;;5063273;28;20079;-73
2023/01/05 01:04:47;;;;;;;3.97;2.17;;;16.50;58.50;;;;;;5063187;28;20033;-73
2023/01/05 01:07:12;;;;;;;3.95;2.10;;;16.60;58.50;;;;;;5063102;28;20127;-73
2023/01/05 01:09:39;;;;;;;3.28;1.65;;;16.50;58.40;;;;;;5063018;28;20057;-74
2023/01/05 01:12:05;;;;;;;2.13;1.50;;;16.50;58.40;;;;;;5078050;28;20056;-73
2023/01/05 01:14:31;;;;;;;4.38;1.80;;;16.50;58.50;;;;;;5063129;28;20043;-73
2023/01/05 01:16:57;;;;;;;3.95;2.20;;;16.50;58.50;;;;;;5063025;28;20020;-73
2023/01/05 01:19:25;;;;;;;3.45;1.90;;;16.50;58.50;;;;;;5062875;28;20033;-74
2023/01/05 01:21:51;;;;;;;5.55;3.45;;;16.40;58.50;;;;;;5062892;28;20013;-72
2023/01/05 01:24:27;;;;;;;3.50;1.60;;;16.40;58.50;;;;;;5062777;28;20036;-72
2023/01/05 01:26:54;;;;;;;3.45;1.52;;;16.40;58.50;;;;;;5062579;28;20057;-72
2023/01/05 01:29:20;;;;;;;3.67;1.70;;;16.40;58.60;;;;;;5062776;28;20023;-72
2023/01/05 01:31:48;;;;;;;1.92;1.48;;;16.30;58.60;;;;;;5062564;28;20016;-72
2023/01/05 01:34:14;;;;;;;3.75;1.55;;;16.30;58.60;;;;;;5062680;28;20337;-72
2023/01/05 01:36:40;;;;;;;2.97;1.65;;;16.30;58.60;;;;;;5078033;28;20232;-73
2023/01/05 01:39:06;;;;;;;2.30;1.80;;;16.30;58.70;;;;;;5062733;28;20076;-72
2023/01/05 01:41:32;;;;;;;2.58;1.55;;;16.30;58.70;;;;;;5062523;28;20503;-72
2023/01/05 01:43:58;;;;;;;4.43;2.08;;;16.20;58.70;;;;;;5062551;28;20056;-72
2023/01/05 01:46:25;;;;;;;3.88;1.90;;;16.20;58.80;;;;;;5062574;28;20244;-72
2023/01/05 01:48:59;;;;;;;4.22;1.67;;;16.20;58.80;;;;;;5062445;28;20017;-71
2023/01/05 01:51:43;;;;;;;2.92;1.98;;;16.20;58.80;;;;;;5062628;28;20116;-72
2023/01/05 01:54:12;;;;;;;3.95;2.03;;;16.20;58.80;;;;;;5062562;28;20020;-73
2023/01/05 01:56:46;;;;;;;2.60;1.92;;;16.20;58.90;;;;;;5061043;28;20029;-74
2023/01/05 01:59:13;;;;;;;2.08;1.75;;;16.20;58.90;;;;;;5060950;28;20021;-72
2023/01/05 02:01:39;;;;;;;3.08;1.70;;;16.20;59.00;;;;;;5060814;28;20025;-73
2023/01/05 02:04:06;;;;;;;2.92;1.85;;;16.20;59.10;;;;;;5062257;28;20033;-72
2023/01/05 02:06:32;;;;;;;2.30;1.50;;;16.30;59.20;;;;;;5077273;28;20099;-72
2023/01/05 02:08:58;;;;;;;3.13;1.70;;;16.30;59.00;;;;;;5060776;28;20059;-74
2023/01/05 02:11:42;;;;;;;2.45;1.73;;;16.40;59.00;;;;;;5060770;28;20048;-73
2023/01/05 02:14:18;;;;;;;1.88;1.52;;;16.40;58.90;;;;;;5061898;28;20028;-72
2023/01/05 02:17:11;;;;;;;5.05;2.00;;;16.40;58.60;;;;;;5077301;28;20025;-73
2023/01/05 02:20:02;;;;;;;1.98;1.67;;;16.40;58.70;;;;;;5061924;28;20080;-71
2023/01/05 02:22:46;;;;;;;2.58;1.98;;;16.50;58.50;;;;;;5060586;28;20028;-72
2023/01/05 02:25:42;;;;;;;2.63;1.52;;;16.40;58.40;;;;;;5059711;28;20028;-71
2023/01/05 02:28:25;;;;;;;2.67;1.25;;;16.40;58.30;;;;;;5060374;28;20045;-73
2023/01/05 02:31:00;;;;;;;2.25;1.60;;;16.50;58.40;;;;;;5061783;28;20053;-72
2023/01/05 02:33:25;;;;;;;4.22;1.80;;;16.40;58.30;;;;;;5061607;28;20017;-73
2023/01/05 02:36:26;;;;;;;2.78;1.45;;;16.40;58.40;;;;;;5061584;28;20021;-72
2023/01/05 02:38:54;;;;;;;2.95;1.60;;;16.40;58.40;;;;;;5058376;28;20312;-72
2023/01/05 02:41:44;;;;;;;2.00;1.42;;;16.40;58.50;;;;;;5061547;28;20236;-73
2023/01/05 02:44:15;;;;;;;3.85;1.75;;;16.30;58.40;;;;;;5061584;28;20025;-73
2023/01/05 02:46:41;;;;;;;3.45;1.48;;;16.30;58.50;;;;;;5061448;28;20316;-72
2023/01/05 02:49:08;;;;;;;2.72;1.40;;;16.30;58.60;;;;;;5061587;28;20025;-72
2023/01/05 02:51:45;;;;;;;2.58;1.73;;;16.30;58.60;;;;;;5061458;28;20027;-71
2023/01/05 02:54:20;;;;;;;2.60;2.07;;;16.20;58.70;;;;;;5061440;28;20021;-72
2023/01/05 02:57:16;;;;;;;2.92;1.67;;;16.20;58.80;;;;;;5061399;28;20426;-72
2023/01/05 02:59:46;;;;;;;2.05;1.65;;;16.20;58.80;;;;;;5053147;28;20039;-72
2023/01/05 03:02:19;;;;;;;2.80;1.60;;;16.20;58.80;;;;;;5061253;28;20040;-72
2023/01/05 03:05:09;;;;;;;2.17;1.55;;;16.20;58.90;;;;;;5061442;28;20519;-73
2023/01/05 03:07:39;;;;;;;1.60;1.25;;;16.20;58.80;;;;;;5076701;28;20033;-72
2023/01/05 03:15:39;;;;;;;2.10;1.67;;;16.20;58.90;;;;;;5061212;28;20374;-72
2023/01/05 03:18:15;;;;;;;2.28;1.42;;;16.20;58.90;;;;;;5061104;28;20112;-73
2023/01/05 03:20:46;;;;;;;1.67;1.20;;;16.20;58.90;;;;;;5059779;28;20099;-72
2023/01/05 03:37:52;;;;;;;2.40;1.10;;;16.40;59.00;;;;;;5065027;28;20067;-74
2023/01/05 03:40:27;;;;;;;2.50;1.75;;;16.40;59.00;;;;;;5064901;28;20035;-72
2023/01/05 03:42:54;;;;;;;1.65;1.33;;;16.40;58.70;;;;;;5064979;28;20051;-72
2023/01/05 03:45:22;;;;;;;3.30;1.60;;;16.40;59.30;;;;;;5063728;28;20071;-72
2023/01/05 03:47:48;;;;;;;3.13;1.27;;;16.40;58.70;;;;;;5064925;28;20028;-72
2023/01/05 03:50:14;;;;;;;2.08;1.70;;;16.50;58.70;;;;;;5064892;28;20040;-72
2023/01/05 03:52:40;;;;;;;2.33;1.55;;;16.40;59.10;;;;;;5064709;28;20013;-72
2023/01/05 03:55:06;;;;;;;2.20;1.40;;;16.50;58.40;;;;;;5064428;28;20114;-72
2023/01/05 03:57:32;;;;;;;2.38;1.83;;;16.50;58.40;;;;;;5064587;28;20266;-75
2023/01/05 03:59:57;;;;;;;1.92;1.48;;;16.50;58.40;;;;;;5063377;28;20043;-73
2023/01/05 04:02:23;;;;;;;2.40;1.33;;;16.50;58.40;;;;;;5064619;28;20055;-72
2023/01/05 04:04:49;;;;;;;1.98;1.70;;;16.40;58.40;;;;;;5064710;28;20025;-72
2023/01/05 04:07:16;;;;;;;2.63;1.95;;;16.40;58.40;;;;;;5064464;28;20021;-73
2023/01/05 04:09:42;;;;;;;1.40;1.25;;;16.40;58.50;;;;;;5064700;28;20056;-72
2023/01/05 04:12:07;;;;;;;3.65;1.30;;;16.40;58.50;;;;;;5063189;28;20025;-73
2023/01/05 04:14:33;;;;;;;2.55;1.75;;;16.30;58.50;;;;;;5064198;28;20216;-73
2023/01/05 04:16:59;;;;;;;3.17;1.65;;;16.30;58.50;;;;;;5064306;28;20067;-72
2023/01/05 04:19:25;;;;;;;2.03;1.23;;;16.30;58.60;;;;;;5064290;28;20025;-72
2023/01/05 04:21:50;;;;;;;2.42;1.58;;;16.30;59.20;;;;;;5064210;28;20064;-72
2023/01/05 04:24:16;;;;;;;2.42;1.70;;;16.30;58.70;;;;;;5064119;28;20033;-72
2023/01/05 04:26:42;;;;;;;3.05;1.50;;;16.20;58.70;;;;;;5063990;28;20060;-72
2023/01/05 04:29:10;;;;;;;1.58;1.15;;;16.20;58.60;;;;;;5064082;28;20068;-72
2023/01/05 04:31:36;;;;;;;2.80;1.58;;;16.20;58.70;;;;;;5064095;28;20017;-72
2023/01/05 04:34:01;;;;;;;1.60;1.50;;;16.20;58.80;;;;;;5063986;28;20032;-73
2023/01/05 04:36:27;;;;;;;2.72;2.00;;;16.20;58.90;;;;;;5063995;28;20111;-73
2023/01/05 04:38:53;;;;;;;1.42;1.20;;;16.10;58.80;;;;;;5063883;28;20046;-72
2023/01/05 04:41:19;;;;;;;2.65;1.60;;;16.10;58.90;;;;;;5064114;28;20063;-73
2023/01/05 04:43:45;;;;;;;1.35;1.17;;;16.10;59.00;;;;;;5063899;28;20040;-71
2023/01/05 04:46:10;;;;;;;1.98;1.50;;;16.20;59.10;;;;;;5079257;28;20020;-72
2023/01/05 04:48:36;;;;;;;2.17;1.45;;;16.20;59.20;;;;;;5063016;28;20316;-72
2023/01/05 04:51:02;;;;;;;1.65;1.30;;;16.30;59.30;;;;;;5063772;28;20032;-72
2023/01/05 04:53:28;;;;;;;1.98;1.67;;;16.30;59.30;;;;;;5063720;28;20033;-73
2023/01/05 04:55:54;;;;;;;3.03;1.50;;;16.40;59.10;;;;;;5063474;28;20020;-72
2023/01/05 04:58:20;;;;;;;2.80;1.70;;;16.40;59.10;;;;;;5063690;28;20028;-72
2023/01/05 05:00:47;;;;;;;1.50;1.25;;;16.40;58.90;;;;;;5063541;28;20024;-72
2023/01/05 05:03:13;;;;;;;1.80;1.42;;;16.50;58.70;;;;;;5063439;28;20031;-73
2023/01/05 05:05:38;;;;;;;6.40;2.55;;;16.50;58.60;;;;;;5063519;28;20024;-73
2023/01/05 05:08:05;;;;;;;2.92;1.33;;;16.50;58.50;;;;;;5063117;28;20057;-73
2023/01/05 05:10:30;;;;;;;1.40;1.15;;;16.50;58.50;;;;;;5063268;28;20036;-72
2023/01/05 05:12:56;;;;;;;2.85;1.40;;;16.40;58.50;;;;;;5063406;28;20327;-72
2023/01/05 05:15:22;;;;;;;2.65;1.58;;;16.40;58.50;;;;;;5063323;28;20090;-72
2023/01/05 05:17:48;;;;;;;2.53;1.23;;;16.40;58.60;;;;;;5063296;28;20083;-72
2023/01/05 05:20:14;;;;;;;2.00;1.38;;;16.40;58.60;;;;;;5063142;28;20343;-71
2023/01/05 05:22:40;;;;;;;2.60;1.85;;;16.30;58.50;;;;;;5063039;28;20031;-73
2023/01/05 05:25:06;;;;;;;2.25;1.48;;;16.40;58.70;;;;;;5062951;28;20088;-74
2023/01/05 05:27:32;;;;;;;2.38;1.33;;;16.30;58.70;;;;;;5062774;28;20107;-72
2023/01/05 05:29:58;;;;;;;1.75;1.20;;;16.30;58.60;;;;;;5061833;28;20316;-73
2023/01/05 05:32:24;;;;;;;2.90;1.20;;;16.30;58.70;;;;;;5062946;28;20031;-72
2023/01/05 05:34:49;;;;;;;1.80;1.10;;;16.30;58.70;;;;;;5062841;28;20084;-72
2023/01/05 05:37:15;;;;;;;4.30;1.88;;;16.20;58.70;;;;;;5062760;28;20324;-72
2023/01/05 05:39:41;;;;;;;1.92;1.40;;;16.20;58.80;;;;;;5062745;28;20017;-73
2023/01/05 05:42:07;;;;;;;1.75;1.23;;;16.20;58.80;;;;;;5062569;28;20067;-73
2023/01/05 05:44:33;;;;;;;2.70;1.33;;;16.20;58.80;;;;;;5062542;28;20033;-72
2023/01/05 05:46:59;;;;;;;2.92;1.50;;;16.10;58.80;;;;;;5062451;28;20032;-72
2023/01/05 05:49:24;;;;;;;1.88;1.20;;;16.10;58.80;;;;;;5062618;28;20025;-74
2023/01/05 05:51:50;;;;;;;1.88;0.90;;;16.10;58.80;;;;;;5062478;28;20032;-72
2023/01/05 05:54:16;;;;;;;1.30;1.15;;;16.10;58.90;;;;;;5062368;28;20264;-72
2023/01/05 05:56:42;;;;;;;1.77;1.42;;;16.10;58.90;;;;;;5062338;28;20025;-73
2023/01/05 05:59:07;;;;;;;1.60;1.20;;;16.10;59.00;;;;;;5062274;28;20021;-72
2023/01/05 06:01:33;;;;;;;1.90;1.20;;;16.10;59.00;;;;;;5062209;28;20060;-73
2023/01/05 06:03:59;;;;;;;1.58;1.17;;;16.20;59.10;;;;;;5062134;28;20367;-73
2023/01/05 06:06:25;;;;;;;1.73;1.10;;;16.30;59.10;;;;;;5062105;28;20074;-73
2023/01/05 06:08:51;;;;;;;1.52;1.15;;;16.30;59.00;;;;;;5062303;28;20021;-71
2023/01/05 06:11:16;;;;;;;1.77;1.30;;;16.30;58.90;;;;;;5062161;28;20376;-72
2023/01/05 06:13:42;;;;;;;2.28;1.33;;;16.40;58.80;;;;;;5060828;28;20013;-72
2023/01/05 06:16:09;;;;;;;1.73;1.10;;;16.40;58.60;;;;;;5062053;28;20021;-72
2023/01/05 06:18:34;;;;;;;1.77;1.35;;;16.40;58.50;;;;;;5061908;28;20032;-74
2023/01/05 06:21:00;;;;;;;2.80;1.20;;;16.40;58.40;;;;;;5062023;28;20088;-74
2023/01/05 06:23:26;;;;;;;2.08;1.63;;;16.40;58.30;;;;;;5077405;28;20029;-72
2023/01/05 06:25:52;;;;;;;1.63;1.30;;;16.40;58.30;;;;;;5061698;28;20150;-72
2023/01/05 06:28:17;;;;;;;1.20;1.10;;;16.40;58.30;;;;;;5061873;28;20017;-72
2023/01/05 06:30:43;;;;;;;2.63;1.40;;;16.30;58.40;;;;;;5061882;28;20073;-72
2023/01/05 06:33:09;;;;;;;1.92;1.05;;;16.30;58.30;;;;;;5061676;28;20048;-71
2023/01/05 06:35:35;;;;;;;1.73;1.33;;;16.30;58.40;;;;;;5061741;28;20025;-73
2023/01/05 06:38:01;;;;;;;2.20;1.30;;;16.30;58.60;;;;;;5061580;28;20051;-73
2023/01/05 06:40:26;;;;;;;2.42;1.20;;;16.30;58.50;;;;;;5061572;28;20037;-73
2023/01/05 06:42:52;;;;;;;1.70;1.50;;;16.20;58.50;;;;;;5061617;28;20028;-72
2023/01/05 06:45:18;;;;;;;1.35;0.90;;;16.20;58.60;;;;;;5061550;28;20048;-72
2023/01/05 06:47:44;;;;;;;1.70;1.42;;;16.20;58.60;;;;;;5061492;28;20079;-72
2023/01/05 06:50:10;;;;;;;3.15;1.48;;;16.20;58.70;;;;;;5061425;28;20095;-72
2023/01/05 06:52:38;;;;;;;1.50;1.05;;;16.20;58.70;;;;;;5061443;28;20263;-73
2023/01/05 06:55:08;;;;;;;2.05;1.30;;;16.20;58.80;;;;;;5061517;28;20028;-72
2023/01/05 06:57:35;;;;;;;2.28;1.20;;;16.20;58.80;;;;;;5061516;28;20024;-72
2023/01/05 07:00:06;;;;;;;1.95;1.20;;;16.20;58.80;;;;;;5060178;28;20032;-72
2023/01/05 07:02:32;;;;;;;1.60;1.23;;;16.20;58.80;;;;;;5061254;28;20078;-72
2023/01/05 07:04:58;;;;;;;1.90;1.20;;;16.20;58.80;;;;;;5061307;28;20052;-72
2023/01/05 07:07:24;;;;;;;1.20;1.02;;;16.20;58.80;;;;;;5059826;28;20021;-71
2023/01/05 07:09:50;;;;;;;1.35;1.20;;;16.20;58.80;;;;;;5076336;28;20021;-71
2023/01/05 07:12:16;;;;;;;2.35;1.17;;;16.20;58.80;;;;;;5061192;28;20029;-72
2023/01/05 07:14:42;;;;;;;1.40;1.02;;;16.20;58.80;;;;;;5061254;28;20027;-72
2023/01/05 07:17:08;;;;;;;1.20;1.10;;;16.20;58.80;;;;;;5061069;28;20025;-73
2023/01/05 07:19:34;;;;;;;1.77;1.23;;;16.10;58.80;;;;;;5061100;28;20089;-71
2023/01/05 07:22:00;;;;;;;1.33;1.20;;;16.20;58.80;;;;;;5061111;28;20094;-71
2023/01/05 07:24:26;;;;;;;2.25;1.27;;;16.20;58.90;;;;;;5061053;28;20029;-71
2023/01/05 07:26:51;;;;;;;1.38;0.88;;;16.20;59.00;;;;;;5060808;28;20405;-71
2023/01/05 07:29:17;;;;;;;2.67;1.30;;;16.30;59.00;;;;;;5061098;28;20051;-72
2023/01/05 07:31:43;;;;;;;1.30;1.02;;;16.40;59.00;;;;;;5076457;28;20092;-73
2023/01/05 07:34:09;;;;;;;2.05;1.17;;;16.40;58.90;;;;;;5059653;28;20017;-72
2023/01/05 07:36:35;;;;;;;1.70;1.20;;;16.40;58.80;;;;;;5060901;28;20017;-71
2023/01/05 07:39:01;;;;;;;2.17;1.20;;;16.40;58.70;;;;;;5060966;28;20055;-71
2023/01/05 07:41:26;;;;;;;3.75;1.30;;;16.40;58.60;;;;;;5060987;28;20033;-72
2023/01/05 07:43:52;;;;;;;1.77;1.40;;;16.50;58.50;;;;;;5060860;28;20040;-71
2023/01/05 07:46:18;;;;;;;1.70;1.17;;;16.50;58.40;;;;;;5060851;28;20056;-71
2023/01/05 07:48:44;;;;;;;1.52;1.10;;;16.50;58.30;;;;;;5076415;28;20096;-71
2023/01/05 07:51:10;;;;;;;1.35;1.15;;;16.40;58.30;;;;;;5060851;28;20080;-71
2023/01/05 07:53:37;;;;;;;1.63;1.20;;;16.50;58.30;;;;;;5060745;28;20085;-71
2023/01/05 07:56:05;;;;;;;1.67;1.50;;;16.40;58.30;;;;;;5076192;28;20017;-71
2023/01/05 07:58:32;;;;;;;1.23;1.10;;;16.50;58.30;;;;;;5059667;28;20465;-72
2023/01/05 08:01:03;;;;;;;1.45;1.27;;;16.50;58.30;;;;;;5059408;28;20228;-74
2023/01/05 08:03:29;;;;;;;1.05;0.90;;;16.50;58.30;;;;;;5060643;28;20088;-72
2023/01/05 08:05:55;;;;;;;1.30;1.10;;;16.40;58.30;;;;;;5060566;28;20071;-72
2023/01/05 08:08:20;;;;;;;2.65;1.20;;;16.40;58.30;;;;;;5076148;28;20013;-72
2023/01/05 08:10:46;;;;;;;1.38;1.13;;;16.40;58.30;;;;;;5060533;28;20025;-73
2023/01/05 08:15:57;;;;;;;2.17;1.45;;;16.30;58.30;;;;;;5060598;28;20024;-72
2023/01/05 08:18:23;;;;;;;1.92;1.20;;;16.30;58.30;;;;;;5060632;28;20071;-73
2023/01/05 08:20:51;;;;;;;2.33;1.40;;;16.30;58.40;;;;;;5060635;28;20024;-72
2023/01/05 08:23:17;;;;;;;1.63;1.23;;;16.30;58.40;;;;;;5062753;28;20025;-72
2023/01/05 08:25:42;;;;;;;2.00;1.20;;;16.30;58.30;;;;;;5063736;28;20145;-73
2023/01/05 08:28:08;;;;;;;1.42;1.20;;;16.30;58.30;;;;;;5064042;28;20035;-72
2023/01/05 08:30:34;;;;;;;2.05;1.40;;;16.30;58.30;;;;;;5063987;28;20081;-71
2023/01/05 08:33:00;;;;;;;1.25;1.15;;;16.30;58.40;;;;;;5063984;28;20021;-73
2023/01/05 08:35:26;;;;;;;1.35;1.10;;;16.30;58.40;;;;;;5063846;28;20044;-72
2023/01/05 08:37:51;;;;;;;1.27;1.20;;;16.30;58.60;;;;;;5063980;28;20079;-72
2023/01/05 08:40:17;;;;;;;1.30;1.02;;;16.30;58.60;;;;;;5079243;28;20037;-73
2023/01/05 08:42:47;;;;;;;1.25;1.00;;;16.40;58.60;;;;;;5062681;28;20056;-72
2023/01/05 08:45:14;;;;;;;1.90;1.27;;;16.40;58.70;;;;;;5063744;28;20526;-73
2023/01/05 08:47:40;;;;;;;2.00;1.25;;;16.40;58.70;;;;;;5063737;28;20224;-73
2023/01/05 08:50:08;;;;;;;1.77;1.35;;;16.50;58.70;;;;;;5063681;28;20347;-72
2023/01/05 08:52:35;;;;;;;1.70;1.33;;;16.50;58.50;;;;;;5063597;28;20025;-73
2023/01/05 08:55:00;;;;;;;5.95;1.33;;;16.50;58.30;;;;;;5063567;28;20017;-75
2023/01/05 08:57:26;;;;;;;1.65;1.25;;;16.50;58.20;;;;;;5062097;28;20027;-71
2023/01/05 08:59:52;;;;;;;1.27;1.17;;;16.60;58.10;;;;;;5063443;28;20036;-72
2023/01/05 09:02:18;;;;;;;2.33;1.33;;;16.60;58.10;;;;;;5063337;28;20210;-71
2023/01/05 09:04:43;;;;;;;1.17;1.08;;;16.60;57.90;;;;;;5063297;28;20051;-72
2023/01/05 09:07:09;;;;;;;1.52;1.30;;;16.60;57.90;;;;;;5061917;28;20044;-72
2023/01/05 09:09:35;;;;;;;1.67;1.40;;;16.60;57.90;;;;;;5063258;28;20186;-71
2023/01/05 09:12:01;;;;;;;2.15;1.52;;;16.50;57.90;;;;;;5063139;28;20082;-72
2023/01/05 09:14:26;;;;;;;1.55;1.15;;;16.50;58.00;;;;;;5078696;28;20021;-71
2023/01/05 09:16:52;;;;;;;1.17;1.08;;;16.50;57.90;;;;;;5062936;28;20029;-73
2023/01/05 09:19:18;;;;;;;1.75;1.25;;;16.50;58.00;;;;;;5061624;28;20033;-72
2023/01/05 09:21:44;;;;;;;1.98;1.52;;;16.50;58.00;;;;;;5078449;28;20024;-72
2023/01/05 09:24:14;;;;;;;1.70;1.60;;;16.60;58.00;;;;;;5062828;28;20505;-72
2023/01/05 09:26:41;;;;;;;1.33;1.10;;;16.50;58.00;;;;;;5062626;28;20053;-72
2023/01/05 09:29:07;;;;;;;1.25;1.15;;;16.50;58.00;;;;;;5062728;28;20025;-72
2023/01/05 09:31:33;;;;;;;1.55;1.35;;;16.50;58.00;;;;;;5062664;28;20067;-71
2023/01/05 09:33:59;;;;;;;3.10;1.42;;;16.50;58.00;;;;;;5062288;28;20028;-73
2023/01/05 09:36:25;;;;;;;1.15;1.00;;;16.50;57.90;;;;;;5062646;28;20028;-72
2023/01/05 09:38:52;;;;;;;1.60;1.20;;;16.50;57.90;;;;;;5062650;28;20043;-72
2023/01/05 09:41:44;;;;;;;1.55;1.20;;;16.50;57.90;;;;;;5062571;28;20027;-71
2023/01/05 09:44:42;;;;;;;1.83;1.30;;;16.50;57.90;;;;;;5058581;28;20036;-72
2023/01/05 09:47:23;;;;;;;1.10;0.97;;;16.50;57.90;;;;;;5050458;28;20025;-71
2023/01/05 09:49:49;;;;;;;1.13;0.85;;;16.50;57.90;;;;;;5077885;28;20052;-72
2023/01/05 09:52:20;;;;;;;1.95;1.23;;;16.50;57.90;;;;;;5062393;28;20101;-71
2023/01/05 09:54:46;;;;;;;2.10;1.00;;;16.50;57.90;;;;;;5062366;28;20012;-71
2023/01/05 09:57:22;;;;;;;1.50;1.00;;;16.50;57.90;;;;;;5062334;28;20396;-72
2023/01/05 09:59:51;;;;;;;1.00;0.93;;;16.50;57.90;;;;;;5061084;28;20037;-71
2023/01/05 10:02:17;;;;;;;;;;;16.60;58.00;;;;;;5062565;28;20029;-72
2023/01/05 10:04:43;;;;;;;1.35;0.75;;;16.60;58.00;;;;;;5062179;28;20010;-71
2023/01/05 10:07:19;;;;;;;1.30;1.10;;;16.60;58.00;;;;;;5062020;28;20025;-71
2023/01/05 10:09:46;;;;;;;4.38;1.08;;;16.60;58.00;;;;;;5062074;28;20048;-71
2023/01/05 10:13:05;;;;;;;1.88;1.08;;;16.60;58.00;;;;;;5062039;28;20429;-72
2023/01/05 10:15:52;;;;;;;1.33;1.13;;;16.60;57.90;;;;;;5047924;28;20028;-72
2023/01/05 10:18:29;;;;;;;1.95;1.27;;;16.60;57.90;;;;;;5061930;28;20297;-71
2023/01/05 10:21:21;;;;;;;1.77;1.10;;;16.60;58.00;;;;;;5061926;28;20028;-72
2023/01/05 10:24:12;;;;;;;1.58;1.27;;;16.60;57.90;;;;;;5061644;28;20012;-71
2023/01/05 10:26:45;;;;;;;1.13;0.90;;;16.70;57.80;;;;;;5061509;28;20351;-72
2023/01/05 10:29:21;;;;;;;1.20;0.98;;;16.70;57.80;;;;;;5061740;28;20025;-72
2023/01/05 10:32:09;;;;;;;1.27;1.17;;;16.60;57.70;;;;;;5061796;28;20032;-72
2023/01/05 10:35:01;;;;;;;1.20;0.85;;;16.60;57.70;;;;;;5061750;28;20217;-73
2023/01/05 10:37:34;;;;;;;1.65;1.23;;;16.60;57.80;;;;;;5061605;28;20017;-72
2023/01/05 10:40:30;;;;;;;1.30;1.00;;;16.60;57.70;;;;;;5060239;28;20221;-72
2023/01/05 10:43:05;;;;;;;1.23;0.90;;;16.60;57.80;;;;;;5061499;28;20029;-77
2023/01/05 10:45:31;;;;;;;1.77;1.17;;;16.60;57.80;;;;;;5060884;28;20167;-71
2023/01/05 10:47:58;;;;;;;1.48;1.23;;;16.60;57.70;;;;;;5061212;28;20355;-71
2023/01/05 10:50:47;;;;;;;1.52;1.10;;;16.60;57.70;;;;;;5061322;28;20083;-71
2023/01/05 10:53:17;;;;;;;;;;;16.60;57.70;;;;;;5061822;28;20339;-73
2023/01/05 10:56:05;;;;;;;1.17;1.02;;;16.60;57.70;;;;;;5061307;28;20204;-73
2023/01/05 10:58:33;;;;;;;1.75;0.88;;;16.50;57.70;;;;;;5061417;28;20058;-72
2023/01/05 11:01:27;;;;;;;1.65;0.95;;;16.50;57.80;;;;;;5061183;28;20013;-72
2023/01/05 11:04:15;;;;;;;1.35;1.02;;;16.50;57.80;;;;;;5067506;28;20021;-71
2023/01/05 11:06:41;;;;;;;1.98;0.93;;;16.50;58.00;;;;;;5061107;28;20052;-71
2023/01/05 11:09:25;;;;;;;0.80;0.70;;;16.50;58.00;;;;;;5061083;28;20380;-72
2023/01/05 11:11:58;;;;;;;1.02;0.93;;;16.40;58.60;;;;;;5061088;28;20070;-73
2023/01/05 11:14:28;;;;;;;1.92;1.33;;;16.50;58.20;;;;;;5061023;28;20016;-71
2023/01/05 11:17:01;;;;;;;1.25;1.10;;;16.40;58.20;;;;;;5061126;28;20277;-72
2023/01/05 11:19:34;;;;;;;1.70;1.45;;;16.40;58.20;;;;;;5061227;28;20029;-73
2023/01/05 11:22:00;;;;;;;1.88;1.33;;;16.40;58.30;;;;;;5061074;28;20016;-72
2023/01/05 11:24:32;;;;;;;1.70;1.00;;;16.50;59.00;;;;;;5061155;28;20206;-71
2023/01/05 11:27:01;;;;;;;2.00;1.17;;;16.50;58.50;;;;;;5059587;28;20044;-73
2023/01/05 11:29:28;;;;;;;1.00;0.90;;;16.50;58.50;;;;;;5061085;28;20032;-74
2023/01/05 11:31:59;;;;;;;1.05;0.95;;;16.60;58.60;;;;;;5061055;28;20316;-71
2023/01/05 11:34:57;;;;;;;1.08;0.98;;;16.60;58.50;;;;;;5060979;28;20017;-72
2023/01/05 11:37:27;;;;;;;1.45;1.08;;;16.70;58.40;;;;;;5057833;28;20045;-72
2023/01/05 11:39:56;;;;;;;1.00;0.90;;;16.70;58.40;;;;;;5076367;28;20228;-72
2023/01/05 11:42:21;;;;;;;;;;;16.70;58.30;;;;;;5061188;28;20048;-74
2023/01/05 11:44:51;;;;;;;1.50;1.05;;;16.70;58.20;;;;;;5060811;28;19909;-74
2023/01/05 11:47:44;;;;;;;0.88;0.85;;;16.70;58.20;;;;;;5060919;28;20025;-73
2023/01/05 11:50:13;;;;;;;0.85;0.70;;;16.70;58.20;;;;;;5060694;28;20334;-73
2023/01/05 11:52:40;;;;;;;1.52;1.23;;;16.80;58.40;;;;;;5059580;28;20028;-73
2023/01/05 11:55:32;;;;;;;0.82;0.70;;;16.80;58.40;;;;;;5060752;28;20025;-72
2023/01/05 11:58:13;;;;;;;1.10;0.85;;;16.70;58.40;;;;;;5064203;28;20258;-72
2023/01/05 12:00:57;;;;;;;1.02;0.88;;;16.80;58.40;;;;;;5064497;28;20324;-73
2023/01/05 12:04:00;;;;;;;0.98;0.88;;;16.80;58.40;;;;;;5064546;28;20047;-73
2023/01/05 12:06:51;;;;;;;1.27;0.98;;;16.80;58.40;;;;;;5010377;28;20043;-73
2023/01/05 12:09:30;;;;;;;0.93;0.90;;;16.80;58.40;;;;;;5063134;28;20032;-72
2023/01/05 12:12:02;;;;;;;2.35;1.00;;;16.90;58.60;;;;;;5057169;28;20080;-72
2023/01/05 12:14:30;;;;;;;131.18;11.80;;;16.90;58.60;;;;;;5061204;28;20217;-72
2023/01/05 12:16:59;;;;;;;9.95;2.10;;;16.60;58.60;;;;;;5063370;28;20043;-72
2023/01/05 12:19:53;;;;;;;21.00;3.33;;;16.70;59.00;;;;;;5064744;28;20020;-74
2023/01/05 12:22:44;;;;;;;22.17;3.38;;;16.70;59.20;;;;;;5065263;28;20032;-72
2023/01/05 12:25:42;;;;;;;19.95;1.38;;;16.60;59.70;;;;;;5056856;28;20185;-74
2023/01/05 12:28:26;;;;;;;18.25;2.17;;;16.70;58.90;;;;;;5064549;28;20059;-74
2023/01/05 12:31:12;;;;;;;14.32;2.15;;;16.80;58.80;;;;;;5063171;28;20021;-71
2023/01/05 12:34:00;;;;;;;25.70;4.03;;;16.90;58.90;;;;;;5063129;28;20029;-73
2023/01/05 12:36:26;;;;;;;;;;;17.00;59.10;;;;;;5064819;28;20025;-74
2023/01/05 12:39:13;;;;;;;31.33;3.72;;;17.00;59.40;;;;;;5063224;28;19987;-72
2023/01/05 12:41:47;;;;;;;33.17;3.85;;;17.00;59.30;;;;;;5044052;28;20045;-72
2023/01/05 12:44:49;;;;;;;34.33;4.18;;;17.00;59.30;;;;;;5043970;28;20056;-72
2023/01/05 12:47:27;;;;;;;37.60;4.30;;;17.00;59.30;;;;;;5064344;28;20025;-71
2023/01/05 12:50:04;;;;;;;34.67;4.80;;;17.10;59.50;;;;;;5063421;28;20021;-75
2023/01/05 12:52:33;;;;;;;20.40;3.08;;;17.10;60.20;;;;;;5064753;28;20071;-72
2023/01/05 12:55:13;;;;;;;21.77;3.78;;;17.10;59.70;;;;;;5063954;28;20096;-72
2023/01/05 12:58:04;;;;;;;24.73;4.05;;;17.10;59.90;;;;;;5063290;28;20024;-74
2023/01/05 13:00:36;;;;;;;51.25;5.07;;;17.10;60.00;;;;;;5058456;28;20052;-72
2023/01/05 13:03:08;;;;;;;40.10;5.55;;;17.10;60.00;;;;;;5058075;28;20316;-75
2023/01/05 13:05:59;;;;;;;40.17;5.70;;;17.20;60.20;;;;;;5062219;28;20021;-74
2023/01/05 13:08:42;;;;;;;30.92;6.78;;;17.20;60.70;;;;;;5064073;28;20075;-75
2023/01/05 13:11:34;;;;;;;42.15;8.13;;;17.20;60.40;;;;;;5064492;28;20058;-75
2023/01/05 13:14:09;;;;;;;33.78;6.10;;;17.20;60.50;;;;;;5064010;28;20085;-75
2023/01/05 13:16:41;;;;;;;42.55;6.40;;;17.30;61.10;;;;;;5063793;28;20091;-74
2023/01/05 13:19:33;;;;;;;39.83;5.60;;;17.30;60.60;;;;;;5056980;28;20018;-72
2023/01/05 13:22:03;;;;;;;60.92;6.85;;;17.30;61.40;;;;;;5049148;28;20032;-74
2023/01/05 13:24:45;;;;;;;54.00;6.53;;;17.20;60.90;;;;;;5064091;28;20092;-72
2023/01/05 13:27:12;;;;;;;38.13;7.63;;;17.30;60.90;;;;;;5056473;28;20053;-71
2023/01/05 13:29:42;;;;;;;51.55;8.85;;;17.30;61.00;;;;;;5061753;28;20059;-71
2023/01/05 13:32:31;;;;;;;41.28;7.10;;;17.30;60.90;;;;;;5062561;28;20335;-76
2023/01/05 13:35:19;;;;;;;60.67;8.15;;;17.40;61.00;;;;;;5050034;28;20024;-75
2023/01/05 13:38:00;;;;;;;;;;;17.40;61.00;;;;;;5063326;28;20096;-72
2023/01/05 13:40:33;;;;;;;38.33;7.25;;;17.40;61.20;;;;;;5078363;28;19904;-72